Time;durP1;ratioP1;P1;durP2;ratioP2;P2;SDS_P1;SDS_P2;PMS_P1;PMS_P2;Temp;Humidity;BMP_temperature;BMP_pressure;BME280_temperature;BME280_humidity;BME280_pressure;Samples;Min_cycle;Max_cycle;Signal;HPM_P1;HPM_P2
2021/10/28 00:13:04;;;;;;;;;;;;;;;16.97;43.38;96171.69;1044305;28;1149;-62
2021/10/28 00:13:32;;;;;;;;;;;;;;;16.97;43.26;96175.13;1047333;28;1147;-62
2021/10/28 00:14:04;;;;;;;;;;;;;;;16.96;43.32;96173.53;1044256;28;1410;-62
2021/10/28 00:14:35;;;;;;;;;;;;;;;16.97;43.42;96177.75;1042476;28;1374;-62
2021/10/28 00:15:09;;;;;;;;;;;;;;;16.97;43.27;96174.31;1039964;28;1093;-62
2021/10/28 00:15:42;;;;;;;;;;;;;;;16.97;43.38;96172.50;1034100;28;781;-62
2021/10/28 00:16:21;;;;;;;;;;;;;;;16.96;43.25;96170.91;1044478;28;1159;-63
2021/10/28 00:16:54;;;;;;;;;;;;;;;16.98;43.37;96171.44;1040742;28;1884;-63
2021/10/28 00:17:44;;;;;;;;;;;;;;;16.96;43.41;96167.50;1046293;28;1194;-62
2021/10/28 00:18:17;;;;;;;;;;;;;;;16.98;43.33;96168.06;1044184;28;1079;-62
2021/10/28 00:18:50;;;;;;;;;;;;;;;16.96;43.36;96168.28;1041705;28;1898;-62
2021/10/28 00:19:21;;;;;;;;;;;;;;;16.97;43.44;96166.47;1040186;28;1387;-62
2021/10/28 00:19:51;;;;;;;;;;;;;;;16.97;43.32;96169.88;1040124;28;1934;-63
2021/10/28 00:20:21;;;;;;;;;;;;;;;16.98;43.48;96170.69;1043730;28;1968;-62
2021/10/28 00:20:54;;;;;;;;;;;;;;;16.97;43.35;96169.88;1048104;28;1781;-62
2021/10/28 00:21:24;;;;;;;;;;;;;;;16.97;43.32;96159.41;1048749;28;1233;-62
2021/10/28 00:21:55;;;;;;;;;;;;;;;16.98;43.30;96160.22;1046529;28;2213;-63
2021/10/28 00:22:26;;;;;;;;;;;;;;;16.98;43.33;96168.06;1048535;28;1209;-62
2021/10/28 00:22:57;;;;;;;;;;;;;;;16.99;43.30;96164.41;1048379;28;1037;-62
2021/10/28 00:23:28;;;;;;;;;;;;;;;16.99;43.18;96167.81;1047479;28;1698;-62
2021/10/28 00:24:04;;;;;;;;;;;;;;;16.98;43.45;96168.06;1048315;28;1092;-62
2021/10/28 00:24:34;;;;;;;;;;;;;;;16.96;43.40;96167.50;1043752;28;1150;-63
2021/10/28 00:25:05;;;;;;;;;;;;;;;16.97;43.28;96163.84;1040750;28;1279;-62
2021/10/28 00:25:38;;;;;;;;;;;;;;;16.97;43.31;96164.66;1040189;28;1003;-62
2021/10/28 00:26:11;;;;;;;;;;;;;;;16.97;43.27;96166.47;1044210;28;1010;-63
2021/10/28 00:26:44;;;;;;;;;;;;;;;16.97;43.19;96153.38;1039604;28;1873;-62
2021/10/28 00:27:15;;;;;;;;;;;;;;;16.97;43.23;96164.66;1044161;28;1316;-62
2021/10/28 00:27:46;;;;;;;;;;;;;;;16.97;43.27;96164.66;1040930;28;1112;-63
2021/10/28 00:28:18;;;;;;;;;;;;;;;16.96;43.21;96157.81;1044731;28;1205;-63
2021/10/28 00:28:56;;;;;;;;;;;;;;;16.97;43.20;96162.03;1045473;28;1050;-62
2021/10/28 00:29:26;;;;;;;;;;;;;;;16.97;43.34;96167.25;1048376;28;1142;-63
2021/10/28 00:29:57;;;;;;;;;;;;;;;16.98;43.25;96165.44;1048624;28;1460;-62
2021/10/28 00:30:28;;;;;;;;;;;;;;;16.97;43.35;96161.22;1048914;28;1138;-63
2021/10/28 00:30:58;;;;;;;;;;;;;;;16.96;43.32;96163.03;1048482;28;1093;-63
2021/10/28 00:31:30;;;;;;;;;;;;;;;16.96;43.33;96160.44;1048120;28;1315;-62
2021/10/28 00:32:01;;;;;;;;;;;;;;;16.98;43.24;96165.44;1044767;28;1920;-62
2021/10/28 00:32:31;;;;;;;;;;;;;;;16.96;43.26;96165.66;1045349;28;1461;-62
2021/10/28 00:33:02;;;;;;;;;;;;;;;16.98;43.31;96162.81;1046528;28;1057;-62
2021/10/28 00:33:33;;;;;;;;;;;;;;;16.96;43.31;96165.66;1048189;28;1177;-63
2021/10/28 00:34:03;;;;;;;;;;;;;;;16.96;43.26;96164.91;1048443;28;1092;-63
2021/10/28 00:34:34;;;;;;;;;;;;;;;16.96;43.33;96170.91;1041543;28;1809;-62
2021/10/28 00:35:05;;;;;;;;;;;;;;;16.96;43.34;96164.91;1040872;28;859;-63
2021/10/28 00:35:35;;;;;;;;;;;;;;;16.98;43.24;96160.97;1044481;28;848;-62
2021/10/28 00:36:07;;;;;;;;;;;;;;;16.97;43.09;96162.03;1043930;28;1092;-62
2021/10/28 00:36:37;;;;;;;;;;;;;;;16.99;43.26;96159.16;1047054;28;1588;-62
2021/10/28 00:37:07;;;;;;;;;;;;;;;16.97;43.25;96156.78;1050537;28;1887;-63
2021/10/28 00:37:38;;;;;;;;;;;;;;;16.97;43.27;96161.22;1045059;28;1849;-62
2021/10/28 00:38:08;;;;;;;;;;;;;;;16.98;43.25;96157.59;1040683;28;1132;-62
2021/10/28 00:38:38;;;;;;;;;;;;;;;16.98;43.19;96162.81;1040042;28;1126;-62
2021/10/28 00:39:09;;;;;;;;;;;;;;;16.99;43.18;96170.44;1039776;28;1969;-62
2021/10/28 00:39:39;;;;;;;;;;;;;;;16.98;43.21;96162.81;1040130;28;1426;-63
2021/10/28 00:40:10;;;;;;;;;;;;;;;16.99;43.37;96164.41;1036167;28;1069;-62
2021/10/28 00:40:40;;;;;;;;;;;;;;;16.97;43.29;96161.22;1039873;28;1170;-62
2021/10/28 00:41:11;;;;;;;;;;;;;;;16.98;43.17;96162.81;1039956;28;1104;-62
2021/10/28 00:41:41;;;;;;;;;;;;;;;16.97;43.31;96161.22;1044263;28;1219;-62
2021/10/28 00:42:13;;;;;;;;;;;;;;;16.97;43.28;96159.41;1048130;28;1153;-62
2021/10/28 00:42:43;;;;;;;;;;;;;;;16.98;43.20;96168.06;1043901;28;1642;-62
2021/10/28 00:43:13;;;;;;;;;;;;;;;16.99;43.19;96167.00;1045557;28;1027;-62
2021/10/28 00:43:48;;;;;;;;;;;;;;;16.97;43.17;96163.84;1048369;28;1028;-63
2021/10/28 00:44:18;;;;;;;;;;;;;;;16.96;43.21;96165.66;1045358;28;1128;-63
2021/10/28 00:44:49;;;;;;;;;;;;;;;16.97;43.24;96171.69;1045702;28;1226;-62
2021/10/28 00:45:22;;;;;;;;;;;;;;;16.98;43.23;96165.44;1052289;28;1122;-62
2021/10/28 00:45:53;;;;;;;;;;;;;;;16.97;43.33;96161.22;1045401;28;1874;-63
2021/10/28 00:46:24;;;;;;;;;;;;;;;16.97;43.29;96171.69;1046737;28;1130;-62
2021/10/28 00:46:54;;;;;;;;;;;;;;;16.98;43.27;96168.06;1048478;28;1135;-62
2021/10/28 00:47:24;;;;;;;;;;;;;;;16.97;43.33;96167.25;1047092;28;1869;-62
2021/10/28 00:47:55;;;;;;;;;;;;;;;16.97;43.38;96167.25;1046957;28;1201;-63
2021/10/28 00:48:26;;;;;;;;;;;;;;;16.97;43.29;96166.47;1044548;28;1190;-62
2021/10/28 00:48:56;;;;;;;;;;;;;;;16.96;43.32;96159.66;1044062;28;1092;-62
2021/10/28 00:49:26;;;;;;;;;;;;;;;16.97;43.34;96166.47;1043203;28;1206;-62
2021/10/28 00:49:57;;;;;;;;;;;;;;;16.97;43.25;96162.03;1044388;28;1045;-62
2021/10/28 00:50:27;;;;;;;;;;;;;;;16.95;43.29;96164.09;1044245;28;2354;-62
2021/10/28 00:50:58;;;;;;;;;;;;;;;16.97;43.16;96166.47;1044322;28;1205;-63
2021/10/28 00:51:28;;;;;;;;;;;;;;;16.97;43.28;96169.88;1040003;28;1228;-62
2021/10/28 00:51:59;;;;;;;;;;;;;;;16.96;43.29;96165.66;1044421;28;1068;-62
2021/10/28 00:52:29;;;;;;;;;;;;;;;16.95;43.29;96166.72;1044757;28;1945;-63
2021/10/28 00:53:00;;;;;;;;;;;;;;;16.96;43.29;96170.91;1042497;28;1758;-62
2021/10/28 00:53:30;;;;;;;;;;;;;;;16.95;43.35;96163.28;1035830;28;1350;-62
2021/10/28 00:54:00;;;;;;;;;;;;;;;16.95;43.30;96168.53;1031684;28;1400;-63
2021/10/28 00:54:31;;;;;;;;;;;;;;;16.96;43.29;96167.50;1031511;28;1222;-62
2021/10/28 00:55:01;;;;;;;;;;;;;;;16.96;43.30;96167.50;1032062;28;1094;-62
2021/10/28 00:55:31;;;;;;;;;;;;;;;16.95;43.30;96168.53;1035626;28;1123;-63
2021/10/28 00:56:03;;;;;;;;;;;;;;;16.96;43.21;96157.81;1040186;28;1127;-63
2021/10/28 00:56:33;;;;;;;;;;;;;;;16.97;43.19;96161.22;1038381;28;1977;-62
2021/10/28 00:57:04;;;;;;;;;;;;;;;16.96;43.27;96165.66;1035188;28;1894;-62
2021/10/28 00:57:34;;;;;;;;;;;;;;;16.97;43.33;96166.47;1039815;28;1947;-62
2021/10/28 00:58:06;;;;;;;;;;;;;;;16.97;43.23;96166.47;1038723;28;1811;-62
2021/10/28 00:58:36;;;;;;;;;;;;;;;16.97;43.21;96169.88;1040776;28;1075;-62
2021/10/28 00:59:06;;;;;;;;;;;;;;;16.96;43.29;96164.91;1047823;28;1992;-62
2021/10/28 00:59:37;;;;;;;;;;;;;;;16.95;43.26;96168.53;1043588;28;1750;-62
2021/10/28 01:00:07;;;;;;;;;;;;;;;16.97;43.23;96166.47;1046003;28;1933;-63
2021/10/28 01:00:38;;;;;;;;;;;;;;;16.97;43.31;96161.22;1046207;28;1170;-62
2021/10/28 01:01:08;;;;;;;;;;;;;;;16.96;43.27;96165.66;1048490;28;1208;-62
2021/10/28 01:01:39;;;;;;;;;;;;;;;16.95;43.34;96158.84;1048281;28;1292;-63
2021/10/28 01:02:10;;;;;;;;;;;;;;;16.95;43.26;96163.28;1045745;28;1106;-62
2021/10/28 01:02:40;;;;;;;;;;;;;;;16.95;43.24;96163.28;1047377;28;996;-63
2021/10/28 01:03:10;;;;;;;;;;;;;;;16.96;43.27;96164.91;1048185;28;1134;-62
2021/10/28 01:03:41;;;;;;;;;;;;;;;16.95;43.35;96163.28;1048615;28;1193;-62
2021/10/28 01:04:11;;;;;;;;;;;;;;;16.95;43.29;96160.69;1048626;28;1191;-62
2021/10/28 01:04:42;;;;;;;;;;;;;;;16.96;43.22;96165.66;1046809;28;1873;-63
2021/10/28 01:05:13;;;;;;;;;;;;;;;16.96;43.35;96164.91;1048923;28;1078;-62
2021/10/28 01:05:44;;;;;;;;;;;;;;;16.96;43.34;96164.91;1049338;28;1037;-63
2021/10/28 01:06:15;;;;;;;;;;;;;;;16.96;43.40;96165.66;1053286;28;1102;-62
2021/10/28 01:06:46;;;;;;;;;;;;;;;16.96;43.22;96159.66;1046385;28;1114;-63
2021/10/28 01:07:17;;;;;;;;;;;;;;;16.96;43.20;96164.91;1046959;28;1230;-63
2021/10/28 01:07:54;;;;;;;;;;;;;;;16.96;43.28;96159.66;1048803;28;1040;-63
2021/10/28 01:08:35;;;;;;;;;;;;;;;16.96;43.33;96155.19;1044866;28;1049;-62
2021/10/28 01:09:07;;;;;;;;;;;;;;;16.97;43.30;96156.78;1047733;28;1246;-63
2021/10/28 01:09:43;;;;;;;;;;;;;;;16.98;43.28;96157.59;1040121;28;1874;-63
2021/10/28 01:10:15;;;;;;;;;;;;;;;16.98;43.26;96160.22;1037800;28;1446;-63
2021/10/28 01:10:49;;;;;;;;;;;;;;;16.97;43.26;96156.00;1036646;28;1375;-63
2021/10/28 01:11:30;;;;;;;;;;;;;;;16.97;43.23;96159.41;1034714;28;1430;-62
2021/10/28 01:12:21;;;;;;;;;;;;;;;16.96;43.05;96154.41;1038460;28;1263;-63
2021/10/28 01:12:52;;;;;;;;;;;;;;;16.96;43.24;96154.41;1048830;28;1080;-63
2021/10/28 01:13:22;;;;;;;;;;;;;;;16.97;43.23;96156.00;1049171;28;1248;-63
2021/10/28 01:14:13;;;;;;;;;;;;;;;16.97;43.20;96153.38;1046313;28;965;-63
2021/10/28 01:15:10;;;;;;;;;;;;;;;16.96;43.21;96151.81;1045948;28;1899;-63
2021/10/28 01:16:00;;;;;;;;;;;;;;;16.95;43.27;96152.81;1052002;28;1032;-63
2021/10/28 01:16:57;;;;;;;;;;;;;;;16.95;43.27;96164.09;1051238;28;941;-63
2021/10/28 01:17:47;;;;;;;;;;;;;;;16.96;43.33;96151.81;1045065;28;1220;-63
2021/10/28 01:18:38;;;;;;;;;;;;;;;16.97;43.25;96158.59;1048419;28;1062;-62
2021/10/28 01:19:09;;;;;;;;;;;;;;;16.96;43.21;96157.03;1053106;28;1910;-63
2021/10/28 01:19:39;;;;;;;;;;;;;;;16.96;43.21;96157.81;1053231;28;1165;-63
2021/10/28 01:20:10;;;;;;;;;;;;;;;16.95;43.19;96156.25;1049179;28;1911;-63
2021/10/28 01:20:42;;;;;;;;;;;;;;;16.95;43.28;96153.63;1044731;28;1320;-63
2021/10/28 01:21:12;;;;;;;;;;;;;;;16.96;43.27;96159.66;1044992;28;1658;-63
2021/10/28 01:22:06;;;;;;;;;;;;;;;16.95;43.27;96158.84;1041608;28;1230;-63
2021/10/28 01:22:56;;;;;;;;;;;;;;;16.97;43.26;96159.41;1047172;28;1607;-63
2021/10/28 01:23:46;;;;;;;;;;;;;;;16.96;43.17;96159.66;1045255;28;2059;-63
2021/10/28 01:24:36;;;;;;;;;;;;;;;16.97;43.18;96156.00;1044255;28;1055;-63
2021/10/28 01:25:07;;;;;;;;;;;;;;;16.98;43.26;96154.97;1044229;28;1978;-63
2021/10/28 01:25:38;;;;;;;;;;;;;;;16.97;43.31;96161.22;1049156;28;799;-63
2021/10/28 01:26:09;;;;;;;;;;;;;;;16.98;43.10;96157.59;1049008;28;1049;-63
2021/10/28 01:26:40;;;;;;;;;;;;;;;16.96;43.12;96152.56;1048863;28;1232;-63
2021/10/28 01:27:12;;;;;;;;;;;;;;;16.97;43.30;96154.16;1050103;28;1501;-63
2021/10/28 01:27:44;;;;;;;;;;;;;;;16.96;43.09;96159.66;1052975;28;1001;-63
2021/10/28 01:28:15;;;;;;;;;;;;;;;16.97;43.19;96153.38;1052307;28;1199;-63
2021/10/28 01:28:53;;;;;;;;;;;;;;;16.97;43.10;96156.00;1049008;28;1065;-63
2021/10/28 01:29:24;;;;;;;;;;;;;;;16.96;43.12;96154.41;1045008;28;1767;-63
2021/10/28 01:30:14;;;;;;;;;;;;;;;16.96;43.22;96155.19;1040184;28;1482;-63
2021/10/28 01:31:06;;;;;;;;;;;;;;;16.96;43.25;96154.41;1048805;28;981;-63
2021/10/28 01:31:50;;;;;;;;;;;;;;;16.96;43.09;96152.56;1038675;28;1562;-63
2021/10/28 01:32:20;;;;;;;;;;;;;;;16.95;43.22;96151.00;1040606;28;1139;-63
2021/10/28 01:32:51;;;;;;;;;;;;;;;16.96;43.17;96151.81;1039542;28;982;-63
2021/10/28 01:33:22;;;;;;;;;;;;;;;16.96;43.11;96143.94;1042740;28;1820;-63
2021/10/28 01:33:52;;;;;;;;;;;;;;;16.95;43.21;96152.81;1049037;28;976;-63
2021/10/28 01:34:23;;;;;;;;;;;;;;;16.96;43.22;96143.94;1043746;28;1607;-63
2021/10/28 01:34:53;;;;;;;;;;;;;;;16.97;43.15;96154.16;1042646;28;2029;-63
2021/10/28 01:35:23;;;;;;;;;;;;;;;16.96;43.11;96149.94;1043087;28;1178;-63
2021/10/28 01:35:54;;;;;;;;;;;;;;;16.95;43.28;96145.75;1045094;28;1064;-63
2021/10/28 01:36:25;;;;;;;;;;;;;;;16.96;43.16;96151.81;1048879;28;1158;-63
2021/10/28 01:36:57;;;;;;;;;;;;;;;16.95;43.19;96147.59;1044966;28;1127;-62
2021/10/28 01:37:27;;;;;;;;;;;;;;;16.97;43.13;96145.50;1044854;28;1118;-63
2021/10/28 01:37:58;;;;;;;;;;;;;;;16.96;43.18;96147.34;1044548;28;985;-63
2021/10/28 01:38:28;;;;;;;;;;;;;;;16.96;43.21;96147.34;1040921;28;1280;-62
2021/10/28 01:38:59;;;;;;;;;;;;;;;16.97;43.16;96145.50;1044854;28;1958;-64
2021/10/28 01:39:29;;;;;;;;;;;;;;;16.96;43.16;96149.94;1044742;28;1162;-64
2021/10/28 01:40:00;;;;;;;;;;;;;;;16.95;43.18;96148.38;1043950;28;1875;-64
2021/10/28 01:40:30;;;;;;;;;;;;;;;16.95;43.17;96144.97;1044038;28;1949;-64
2021/10/28 01:41:01;;;;;;;;;;;;;;;16.96;43.18;96146.56;1049154;28;977;-65
2021/10/28 01:41:32;;;;;;;;;;;;;;;16.96;43.17;96141.31;1048751;28;1241;-63
2021/10/28 01:42:04;;;;;;;;;;;;;;;16.96;43.18;96141.31;1046143;28;1715;-64
2021/10/28 01:42:34;;;;;;;;;;;;;;;16.95;43.14;96140.53;1048690;28;1461;-64
2021/10/28 01:43:04;;;;;;;;;;;;;;;16.96;43.21;96141.31;1043481;28;1514;-64
2021/10/28 01:43:35;;;;;;;;;;;;;;;16.95;43.20;96137.09;1043218;28;1222;-63
2021/10/28 01:44:05;;;;;;;;;;;;;;;16.97;43.18;96145.50;1044309;28;1050;-64
2021/10/28 01:44:36;;;;;;;;;;;;;;;16.97;43.19;96137.66;1040632;28;1930;-63
2021/10/28 01:45:06;;;;;;;;;;;;;;;16.97;43.17;96145.50;1045596;28;1880;-64
2021/10/28 01:45:37;;;;;;;;;;;;;;;16.96;43.24;96143.94;1044913;28;951;-64
2021/10/28 01:46:07;;;;;;;;;;;;;;;16.95;43.25;96137.09;1044893;28;1064;-64
2021/10/28 01:46:37;;;;;;;;;;;;;;;16.95;43.14;96142.34;1049169;28;1185;-64
2021/10/28 01:47:09;;;;;;;;;;;;;;;16.95;43.24;96142.34;1049091;28;993;-64
2021/10/28 01:47:40;;;;;;;;;;;;;;;16.95;43.22;96137.91;1043817;28;1525;-64
2021/10/28 01:48:10;;;;;;;;;;;;;;;16.95;43.19;96131.88;1043944;28;1391;-64
2021/10/28 01:48:41;;;;;;;;;;;;;;;16.96;43.11;96141.31;1040002;28;2280;-64
2021/10/28 01:49:21;;;;;;;;;;;;;;;16.96;43.12;96139.47;1036180;28;1242;-64
2021/10/28 01:49:51;;;;;;;;;;;;;;;16.98;43.15;96141.88;1041463;28;1902;-64
2021/10/28 01:50:22;;;;;;;;;;;;;;;16.97;43.15;96135.03;1046271;28;1841;-64
2021/10/28 01:50:52;;;;;;;;;;;;;;;16.97;43.11;96140.28;1049137;28;1174;-64
2021/10/28 01:51:24;;;;;;;;;;;;;;;16.97;43.16;96142.91;1048921;28;1268;-64
2021/10/28 01:51:55;;;;;;;;;;;;;;;16.99;43.03;96135.59;1048696;28;1178;-64
2021/10/28 01:52:25;;;;;;;;;;;;;;;16.98;43.09;96134.03;1044485;28;1083;-64
2021/10/28 01:52:55;;;;;;;;;;;;;;;16.98;43.05;96140.03;1044255;28;1790;-63
2021/10/28 01:53:25;;;;;;;;;;;;;;;16.98;43.15;96136.63;1048858;28;1175;-64
2021/10/28 01:53:56;;;;;;;;;;;;;;;16.96;43.05;96139.47;1048676;28;1135;-64
2021/10/28 01:54:26;;;;;;;;;;;;;;;16.97;43.13;96135.03;1052680;28;1197;-64
2021/10/28 01:54:57;;;;;;;;;;;;;;;16.97;43.15;96140.28;1051525;28;1864;-64
2021/10/28 01:55:27;;;;;;;;;;;;;;;16.96;43.16;96138.72;1052171;28;1063;-64
2021/10/28 01:55:57;;;;;;;;;;;;;;;16.95;43.17;96137.91;1052956;28;1188;-64
2021/10/28 01:56:28;;;;;;;;;;;;;;;16.95;43.16;96139.72;1049445;28;1138;-63
2021/10/28 01:56:59;;;;;;;;;;;;;;;16.93;43.26;96139.97;1049366;28;1240;-64
2021/10/28 01:57:29;;;;;;;;;;;;;;;16.95;43.32;96137.09;1047840;28;1905;-64
2021/10/28 01:57:59;;;;;;;;;;;;;;;16.95;43.20;96143.16;1048197;28;1693;-64
2021/10/28 01:58:31;;;;;;;;;;;;;;;16.95;43.17;96134.50;1044680;28;1530;-64
2021/10/28 01:59:02;;;;;;;;;;;;;;;16.95;43.19;96137.09;1044592;28;1902;-64
2021/10/28 01:59:33;;;;;;;;;;;;;;;16.95;43.19;96137.91;1048530;28;1159;-64
2021/10/28 02:00:04;;;;;;;;;;;;;;;16.96;43.20;96141.31;1047519;28;2003;-64
2021/10/28 02:00:34;;;;;;;;;;;;;;;16.96;43.16;96141.31;1050989;28;1770;-64
2021/10/28 02:01:06;;;;;;;;;;;;;;;16.97;43.25;96143.69;1052458;28;1088;-64
2021/10/28 02:01:36;;;;;;;;;;;;;;;16.96;43.17;96136.09;1048956;28;1150;-62
2021/10/28 02:02:07;;;;;;;;;;;;;;;16.96;43.19;96143.94;1045000;28;1955;-62
2021/10/28 02:02:37;;;;;;;;;;;;;;;16.95;43.20;96143.16;1048186;28;712;-62
2021/10/28 02:03:07;;;;;;;;;;;;;;;16.94;43.28;96146.78;1048354;28;1127;-62
2021/10/28 02:03:38;;;;;;;;;;;;;;;16.94;43.11;96145.97;1052291;28;1130;-62
2021/10/28 02:04:08;;;;;;;;;;;;;;;16.95;43.21;96140.53;1052870;28;1099;-62
2021/10/28 02:04:39;;;;;;;;;;;;;;;16.94;43.18;96138.94;1047076;28;1741;-62
2021/10/28 02:05:09;;;;;;;;;;;;;;;16.96;43.09;96144.72;1047063;28;1861;-62
2021/10/28 02:05:40;;;;;;;;;;;;;;;16.97;43.06;96140.28;1048401;28;1512;-62
2021/10/28 02:06:10;;;;;;;;;;;;;;;16.95;43.12;96137.09;1041708;28;1956;-62
2021/10/28 02:06:40;;;;;;;;;;;;;;;16.95;43.17;96132.66;1048621;28;1142;-62
2021/10/28 02:07:11;;;;;;;;;;;;;;;16.97;43.10;96145.50;1049010;28;1182;-62
2021/10/28 02:07:41;;;;;;;;;;;;;;;16.96;43.20;96133.47;1044431;28;1032;-62
2021/10/28 02:08:12;;;;;;;;;;;;;;;16.96;43.16;96141.31;1044610;28;1145;-62
2021/10/28 02:08:42;;;;;;;;;;;;;;;16.96;43.16;96136.09;1044652;28;1206;-63
2021/10/28 02:09:12;;;;;;;;;;;;;;;16.98;43.07;96139.25;1044861;28;1099;-62
2021/10/28 02:09:43;;;;;;;;;;;;;;;16.98;43.25;96136.63;1049073;28;1071;-62
2021/10/28 02:10:14;;;;;;;;;;;;;;;16.99;43.09;96143.44;1046456;28;1917;-62
2021/10/28 02:10:44;;;;;;;;;;;;;;;16.98;43.11;96141.88;1045612;28;895;-62
2021/10/28 02:11:15;;;;;;;;;;;;;;;16.97;43.04;96133.22;1049147;28;1284;-62
2021/10/28 02:11:45;;;;;;;;;;;;;;;16.98;43.11;96140.03;1048839;28;1056;-63
2021/10/28 02:12:15;;;;;;;;;;;;;;;16.97;43.09;96145.50;1048916;28;1129;-62
2021/10/28 02:12:47;;;;;;;;;;;;;;;16.96;43.22;96139.47;1048859;28;1005;-62
2021/10/28 02:13:17;;;;;;;;;;;;;;;16.96;43.26;96136.84;1049044;28;1213;-62
2021/10/28 02:13:48;;;;;;;;;;;;;;;16.99;43.03;96148.69;1048279;28;1909;-62
2021/10/28 02:14:18;;;;;;;;;;;;;;;16.98;43.15;96141.88;1046199;28;1587;-62
2021/10/28 02:14:48;;;;;;;;;;;;;;;16.98;43.13;96141.88;1043688;28;1457;-62
2021/10/28 02:15:19;;;;;;;;;;;;;;;16.98;43.13;96152.34;1042705;28;2139;-62
2021/10/28 02:15:50;;;;;;;;;;;;;;;16.96;43.08;96144.72;1048062;28;1331;-61
2021/10/28 02:16:20;;;;;;;;;;;;;;;16.97;43.13;96148.94;1044612;28;1107;-61
2021/10/28 02:16:50;;;;;;;;;;;;;;;16.97;43.03;96148.94;1044414;28;1091;-61
2021/10/28 02:17:21;;;;;;;;;;;;;;;16.98;43.03;96150.50;1044881;28;1225;-62
2021/10/28 02:17:51;;;;;;;;;;;;;;;16.96;43.06;96149.19;1047383;28;909;-62
2021/10/28 02:18:22;;;;;;;;;;;;;;;16.95;43.16;96147.59;1047760;28;1200;-62
2021/10/28 02:18:53;;;;;;;;;;;;;;;16.95;43.09;96148.38;1042232;28;1980;-62
2021/10/28 02:19:23;;;;;;;;;;;;;;;16.96;43.13;96146.56;1044843;28;1218;-62
2021/10/28 02:19:53;;;;;;;;;;;;;;;16.94;43.21;96145.97;1040604;28;1160;-62
2021/10/28 02:20:24;;;;;;;;;;;;;;;16.96;43.20;96149.19;1039808;28;1967;-62
2021/10/28 02:20:55;;;;;;;;;;;;;;;16.95;43.18;96150.19;1044506;28;1107;-62
2021/10/28 02:21:25;;;;;;;;;;;;;;;16.96;43.04;96152.56;1044680;28;1370;-62
2021/10/28 02:21:55;;;;;;;;;;;;;;;16.97;43.08;96154.16;1045968;28;1202;-62
2021/10/28 02:22:26;;;;;;;;;;;;;;;16.98;43.08;96144.50;1044487;28;1334;-62
2021/10/28 02:22:56;;;;;;;;;;;;;;;16.97;43.00;96148.94;1043634;28;1517;-60
2021/10/28 02:23:26;;;;;;;;;;;;;;;16.96;43.16;96149.94;1043273;28;1143;-62
2021/10/28 02:23:57;;;;;;;;;;;;;;;16.96;43.27;96144.72;1044805;28;1048;-61
2021/10/28 02:24:29;;;;;;;;;;;;;;;16.98;43.07;96147.13;1048231;28;1488;-62
2021/10/28 02:25:00;;;;;;;;;;;;;;;16.98;43.10;96147.88;1042273;28;1088;-62
2021/10/28 02:25:30;;;;;;;;;;;;;;;16.98;43.21;96144.50;1043094;28;2265;-62
2021/10/28 02:26:00;;;;;;;;;;;;;;;16.99;43.23;96152.09;1044000;28;2183;-61
2021/10/28 02:26:31;;;;;;;;;;;;;;;16.97;43.15;96145.50;1048926;28;1142;-62
2021/10/28 02:27:01;;;;;;;;;;;;;;;16.97;42.99;96148.94;1053156;28;1096;-62
2021/10/28 02:27:31;;;;;;;;;;;;;;;16.97;43.18;96150.75;1050503;28;1118;-62
2021/10/28 02:28:02;;;;;;;;;;;;;;;16.98;43.11;96152.34;1046557;28;1085;-62
2021/10/28 02:28:32;;;;;;;;;;;;;;;16.98;43.09;96149.72;1048455;28;1221;-62
2021/10/28 02:29:03;;;;;;;;;;;;;;;16.99;43.15;96151.31;1048844;28;1127;-62
2021/10/28 02:29:33;;;;;;;;;;;;;;;16.97;43.18;96151.56;1048629;28;1162;-61
2021/10/28 02:30:05;;;;;;;;;;;;;;;16.97;43.02;96148.13;1049137;28;1132;-62
2021/10/28 02:30:36;;;;;;;;;;;;;;;16.96;43.09;96154.41;1040795;28;1478;-62
2021/10/28 02:31:06;;;;;;;;;;;;;;;16.94;43.12;96152.03;1044071;28;1093;-62
2021/10/28 02:31:38;;;;;;;;;;;;;;;16.97;43.12;96153.38;1044474;28;1292;-61
2021/10/28 02:32:09;;;;;;;;;;;;;;;16.99;43.01;96148.69;1044577;28;1167;-62
2021/10/28 02:32:40;;;;;;;;;;;;;;;16.99;43.07;96154.72;1046696;28;1722;-61
2021/10/28 02:33:11;;;;;;;;;;;;;;;16.98;43.09;96147.88;1045066;28;1084;-62
2021/10/28 02:33:41;;;;;;;;;;;;;;;16.98;43.18;96144.50;1046414;28;1171;-62
2021/10/28 02:34:11;;;;;;;;;;;;;;;17.01;42.94;96154.47;1048083;28;1589;-62
2021/10/28 02:34:42;;;;;;;;;;;;;;;17.00;43.03;96155.53;1043097;28;1778;-62
2021/10/28 02:35:15;;;;;;;;;;;;;;;16.98;43.00;96150.50;1048698;28;1154;-62
2021/10/28 02:35:45;;;;;;;;;;;;;;;16.98;43.02;96147.88;1048607;28;1106;-62
2021/10/28 02:36:17;;;;;;;;;;;;;;;16.96;43.13;96154.41;1044912;28;1501;-62
2021/10/28 02:36:47;;;;;;;;;;;;;;;16.96;43.20;96154.41;1046614;28;1788;-62
2021/10/28 02:37:19;;;;;;;;;;;;;;;16.98;43.13;96152.34;1042693;28;1915;-62
2021/10/28 02:37:49;;;;;;;;;;;;;;;16.97;43.20;96148.94;1040388;28;1092;-61
2021/10/28 02:38:20;;;;;;;;;;;;;;;16.98;43.01;96157.59;1040605;28;1603;-61
2021/10/28 02:38:50;;;;;;;;;;;;;;;16.98;43.07;96152.34;1040610;28;1971;-62
2021/10/28 02:39:20;;;;;;;;;;;;;;;16.96;43.09;96149.94;1044924;28;1182;-62
2021/10/28 02:39:51;;;;;;;;;;;;;;;16.95;43.11;96152.81;1048799;28;898;-62
2021/10/28 02:40:21;;;;;;;;;;;;;;;16.97;43.10;96148.13;1049097;28;1150;-62
2021/10/28 02:40:51;;;;;;;;;;;;;;;16.97;43.10;96153.38;1048767;28;1336;-62
2021/10/28 02:41:22;;;;;;;;;;;;;;;16.94;43.05;96152.03;1048788;28;1307;-62
2021/10/28 02:41:52;;;;;;;;;;;;;;;16.96;43.20;96155.19;1046874;28;1840;-61
2021/10/28 02:42:23;;;;;;;;;;;;;;;16.96;42.97;96157.03;1044624;28;1224;-62
2021/10/28 02:42:53;;;;;;;;;;;;;;;16.96;43.12;96151.81;1046923;28;1404;-62
2021/10/28 02:43:23;;;;;;;;;;;;;;;16.96;43.04;96154.41;1047080;28;1237;-62
2021/10/28 02:43:54;;;;;;;;;;;;;;;16.98;43.13;96157.59;1048451;28;1096;-62
2021/10/28 02:44:24;;;;;;;;;;;;;;;16.98;42.93;96157.59;1048031;28;1327;-61
2021/10/28 02:44:54;;;;;;;;;;;;;;;16.98;43.12;96154.97;1048060;28;1445;-62
2021/10/28 02:45:25;;;;;;;;;;;;;;;16.98;43.03;96147.13;1047156;28;1153;-62
2021/10/28 02:45:55;;;;;;;;;;;;;;;16.98;43.08;96152.34;1048509;28;1150;-62
2021/10/28 02:46:25;;;;;;;;;;;;;;;16.97;43.16;96153.38;1048974;28;1139;-62
2021/10/28 02:46:56;;;;;;;;;;;;;;;16.96;43.10;96149.94;1047826;28;1863;-62
2021/10/28 02:47:26;;;;;;;;;;;;;;;16.97;43.00;96154.16;1048788;28;1361;-62
2021/10/28 02:47:56;;;;;;;;;;;;;;;16.97;43.00;96156.00;1047235;28;1062;-62
2021/10/28 02:48:27;;;;;;;;;;;;;;;16.98;42.99;96157.59;1048540;28;1450;-61
2021/10/28 02:48:57;;;;;;;;;;;;;;;16.97;43.06;96153.38;1048697;28;1167;-62
2021/10/28 02:49:28;;;;;;;;;;;;;;;16.96;43.11;96155.19;1048782;28;1193;-62
2021/10/28 02:49:58;;;;;;;;;;;;;;;16.96;43.20;96152.56;1045884;28;1167;-62
2021/10/28 02:50:29;;;;;;;;;;;;;;;16.96;43.09;96160.44;1048592;28;1162;-62
2021/10/28 02:50:59;;;;;;;;;;;;;;;16.96;43.12;96157.81;1048738;28;1103;-62
2021/10/28 02:51:29;;;;;;;;;;;;;;;16.96;43.16;96155.19;1048591;28;1284;-62
2021/10/28 02:52:00;;;;;;;;;;;;;;;16.97;42.97;96156.78;1047579;28;1984;-62
2021/10/28 02:52:30;;;;;;;;;;;;;;;16.96;42.98;96157.03;1048589;28;1000;-61
2021/10/28 02:53:00;;;;;;;;;;;;;;;16.97;43.15;96156.00;1048965;28;1036;-61
2021/10/28 02:53:31;;;;;;;;;;;;;;;16.96;43.18;96154.41;1049090;28;1158;-62
2021/10/28 02:54:01;;;;;;;;;;;;;;;16.97;43.12;96153.38;1048896;28;1084;-61
2021/10/28 02:54:32;;;;;;;;;;;;;;;16.96;43.09;96154.41;1044991;28;1363;-62
2021/10/28 02:55:03;;;;;;;;;;;;;;;16.95;43.11;96148.38;1044599;28;1907;-62
2021/10/28 02:55:34;;;;;;;;;;;;;;;16.97;43.11;96158.59;1048650;28;1146;-62
2021/10/28 02:56:04;;;;;;;;;;;;;;;16.96;43.04;96154.41;1048707;28;1288;-62
2021/10/28 02:56:34;;;;;;;;;;;;;;;16.96;43.10;96159.66;1047703;28;1904;-62
2021/10/28 02:57:06;;;;;;;;;;;;;;;16.97;43.01;96156.00;1048352;28;1461;-62
2021/10/28 02:57:39;;;;;;;;;;;;;;;16.95;43.17;96153.63;1048333;28;1166;-62
2021/10/28 02:58:09;;;;;;;;;;;;;;;16.96;43.12;96146.56;1052722;28;1170;-62
2021/10/28 02:58:39;;;;;;;;;;;;;;;16.96;43.05;96159.66;1048780;28;1205;-61
2021/10/28 02:59:10;;;;;;;;;;;;;;;16.95;43.11;96151.00;1050168;28;1969;-62
2021/10/28 02:59:40;;;;;;;;;;;;;;;16.96;43.14;96152.56;1048766;28;1064;-61
2021/10/28 03:00:12;;;;;;;;;;;;;;;16.98;43.00;96154.97;1048598;28;1169;-61
2021/10/28 03:00:42;;;;;;;;;;;;;;;16.97;42.97;96150.75;1048428;28;1871;-62
2021/10/28 03:01:12;;;;;;;;;;;;;;;16.98;42.97;96160.22;1048721;28;1138;-62